sensor_id;sensor_type;location;lat;lon;timestamp;P1;durP1;ratioP1;P2;durP2;ratioP2
7527;SDS011;3805;49.006;8.514;2023-09-19T00:01:34;3.17;;;1.87;;
7527;SDS011;3805;49.006;8.514;2023-09-19T00:04:24;1.60;;;1.40;;
7527;SDS011;3805;49.006;8.514;2023-09-19T00:07:16;2.10;;;1.80;;
7527;SDS011;3805;49.006;8.514;2023-09-19T00:10:05;2.20;;;2.00;;
7527;SDS011;3805;49.006;8.514;2023-09-19T00:12:56;2.70;;;2.00;;
7527;SDS011;3805;49.006;8.514;2023-09-19T00:15:47;2.37;;;1.77;;
7527;SDS011;3805;49.006;8.514;2023-09-19T00:18:37;2.53;;;1.80;;
7527;SDS011;3805;49.006;8.514;2023-09-19T00:21:27;2.70;;;1.80;;
7527;SDS011;3805;49.006;8.514;2023-09-19T00:24:15;2.70;;;1.67;;
7527;SDS011;3805;49.006;8.514;2023-09-19T00:27:04;2.50;;;1.63;;
7527;SDS011;3805;49.006;8.514;2023-09-19T00:29:53;4.40;;;1.80;;
7527;SDS011;3805;49.006;8.514;2023-09-19T00:32:42;2.37;;;1.60;;
7527;SDS011;3805;49.006;8.514;2023-09-19T00:35:31;2.03;;;1.83;;
7527;SDS011;3805;49.006;8.514;2023-09-19T00:38:21;2.97;;;2.10;;
7527;SDS011;3805;49.006;8.514;2023-09-19T00:41:14;2.30;;;2.10;;
7527;SDS011;3805;49.006;8.514;2023-09-19T00:44:03;4.47;;;1.63;;
7527;SDS011;3805;49.006;8.514;2023-09-19T00:46:52;3.23;;;1.93;;
7527;SDS011;3805;49.006;8.514;2023-09-19T00:49:41;2.73;;;1.70;;
7527;SDS011;3805;49.006;8.514;2023-09-19T00:52:30;2.73;;;1.90;;
7527;SDS011;3805;49.006;8.514;2023-09-19T00:55:20;4.13;;;1.73;;
7527;SDS011;3805;49.006;8.514;2023-09-19T00:58:09;5.03;;;1.57;;
7527;SDS011;3805;49.006;8.514;2023-09-19T01:00:58;2.07;;;1.87;;
7527;SDS011;3805;49.006;8.514;2023-09-19T01:03:47;1.60;;;1.50;;
7527;SDS011;3805;49.006;8.514;2023-09-19T01:06:35;3.47;;;2.10;;
7527;SDS011;3805;49.006;8.514;2023-09-19T01:09:26;3.50;;;1.70;;
7527;SDS011;3805;49.006;8.514;2023-09-19T01:12:18;1.83;;;1.63;;
7527;SDS011;3805;49.006;8.514;2023-09-19T01:15:11;2.10;;;1.50;;
7527;SDS011;3805;49.006;8.514;2023-09-19T01:18:11;1.50;;;1.40;;
7527;SDS011;3805;49.006;8.514;2023-09-19T01:21:05;3.57;;;1.80;;
7527;SDS011;3805;49.006;8.514;2023-09-19T01:24:05;1.90;;;1.80;;
7527;SDS011;3805;49.006;8.514;2023-09-19T01:27:11;1.73;;;1.63;;
7527;SDS011;3805;49.006;8.514;2023-09-19T01:30:12;1.70;;;1.60;;
7527;SDS011;3805;49.006;8.514;2023-09-19T01:33:03;1.77;;;1.63;;
7527;SDS011;3805;49.006;8.514;2023-09-19T01:35:53;1.33;;;1.23;;
7527;SDS011;3805;49.006;8.514;2023-09-19T01:38:45;4.20;;;1.63;;
7527;SDS011;3805;49.006;8.514;2023-09-19T01:41:37;2.00;;;1.80;;
7527;SDS011;3805;49.006;8.514;2023-09-19T01:44:31;2.90;;;1.70;;
7527;SDS011;3805;49.006;8.514;2023-09-19T01:47:28;1.60;;;1.50;;
7527;SDS011;3805;49.006;8.514;2023-09-19T01:50:24;1.37;;;1.27;;
7527;SDS011;3805;49.006;8.514;2023-09-19T01:53:21;1.60;;;1.20;;
7527;SDS011;3805;49.006;8.514;2023-09-19T01:56:16;1.90;;;1.50;;
7527;SDS011;3805;49.006;8.514;2023-09-19T01:59:10;3.60;;;1.50;;
7527;SDS011;3805;49.006;8.514;2023-09-19T02:02:01;1.60;;;1.50;;
7527;SDS011;3805;49.006;8.514;2023-09-19T02:04:51;2.00;;;1.60;;
7527;SDS011;3805;49.006;8.514;2023-09-19T02:07:40;1.73;;;1.63;;
7527;SDS011;3805;49.006;8.514;2023-09-19T02:10:29;1.60;;;1.50;;
7527;SDS011;3805;49.006;8.514;2023-09-19T02:13:18;1.77;;;1.67;;
7527;SDS011;3805;49.006;8.514;2023-09-19T02:16:07;3.70;;;1.93;;
7527;SDS011;3805;49.006;8.514;2023-09-19T02:18:56;2.10;;;1.53;;
7527;SDS011;3805;49.006;8.514;2023-09-19T02:21:48;2.80;;;1.57;;
7527;SDS011;3805;49.006;8.514;2023-09-19T02:24:37;1.80;;;1.40;;
7527;SDS011;3805;49.006;8.514;2023-09-19T02:27:25;2.50;;;1.97;;
7527;SDS011;3805;49.006;8.514;2023-09-19T02:30:14;1.90;;;1.70;;
7527;SDS011;3805;49.006;8.514;2023-09-19T02:33:03;1.67;;;1.57;;
7527;SDS011;3805;49.006;8.514;2023-09-19T02:35:54;2.10;;;1.50;;
7527;SDS011;3805;49.006;8.514;2023-09-19T02:38:46;1.70;;;1.60;;
7527;SDS011;3805;49.006;8.514;2023-09-19T02:41:37;4.10;;;1.57;;
7527;SDS011;3805;49.006;8.514;2023-09-19T02:44:26;2.63;;;1.40;;
7527;SDS011;3805;49.006;8.514;2023-09-19T02:47:15;1.60;;;1.50;;
7527;SDS011;3805;49.006;8.514;2023-09-19T02:50:04;1.60;;;1.50;;
7527;SDS011;3805;49.006;8.514;2023-09-19T02:52:53;3.10;;;1.40;;
7527;SDS011;3805;49.006;8.514;2023-09-19T02:55:44;1.50;;;1.40;;
7527;SDS011;3805;49.006;8.514;2023-09-19T02:58:33;2.40;;;1.57;;
7527;SDS011;3805;49.006;8.514;2023-09-19T03:01:23;1.83;;;1.50;;
7527;SDS011;3805;49.006;8.514;2023-09-19T03:04:11;4.93;;;1.70;;
7527;SDS011;3805;49.006;8.514;2023-09-19T03:07:00;2.37;;;1.67;;
7527;SDS011;3805;49.006;8.514;2023-09-19T03:09:51;5.77;;;1.87;;
7527;SDS011;3805;49.006;8.514;2023-09-19T03:12:41;1.70;;;1.60;;
7527;SDS011;3805;49.006;8.514;2023-09-19T03:15:30;1.73;;;1.63;;
7527;SDS011;3805;49.006;8.514;2023-09-19T03:18:19;2.43;;;1.70;;
7527;SDS011;3805;49.006;8.514;2023-09-19T03:21:08;2.23;;;2.03;;
7527;SDS011;3805;49.006;8.514;2023-09-19T03:24:00;1.97;;;1.50;;
7527;SDS011;3805;49.006;8.514;2023-09-19T03:26:49;5.87;;;2.03;;
7527;SDS011;3805;49.006;8.514;2023-09-19T03:29:39;3.43;;;1.77;;
7527;SDS011;3805;49.006;8.514;2023-09-19T03:32:28;5.03;;;1.97;;
7527;SDS011;3805;49.006;8.514;2023-09-19T03:35:17;5.40;;;2.23;;
7527;SDS011;3805;49.006;8.514;2023-09-19T03:38:05;3.30;;;2.40;;
7527;SDS011;3805;49.006;8.514;2023-09-19T03:40:54;3.00;;;1.70;;
7527;SDS011;3805;49.006;8.514;2023-09-19T03:43:43;5.20;;;2.10;;
7527;SDS011;3805;49.006;8.514;2023-09-19T03:46:33;2.93;;;2.13;;
7527;SDS011;3805;49.006;8.514;2023-09-19T03:49:22;4.47;;;2.57;;
7527;SDS011;3805;49.006;8.514;2023-09-19T03:52:11;3.63;;;2.03;;
7527;SDS011;3805;49.006;8.514;2023-09-19T03:55:00;4.73;;;2.37;;
7527;SDS011;3805;49.006;8.514;2023-09-19T03:57:49;2.73;;;2.20;;
7527;SDS011;3805;49.006;8.514;2023-09-19T04:00:39;4.80;;;1.97;;
7527;SDS011;3805;49.006;8.514;2023-09-19T04:03:29;2.70;;;2.03;;
7527;SDS011;3805;49.006;8.514;2023-09-19T04:06:23;2.20;;;2.00;;
7527;SDS011;3805;49.006;8.514;2023-09-19T04:09:11;2.10;;;2.00;;
7527;SDS011;3805;49.006;8.514;2023-09-19T04:12:00;2.60;;;2.13;;
7527;SDS011;3805;49.006;8.514;2023-09-19T04:14:49;3.03;;;2.33;;
7527;SDS011;3805;49.006;8.514;2023-09-19T04:17:38;2.80;;;2.07;;
7527;SDS011;3805;49.006;8.514;2023-09-19T04:20:28;2.37;;;1.83;;
7527;SDS011;3805;49.006;8.514;2023-09-19T04:23:17;2.20;;;2.00;;
7527;SDS011;3805;49.006;8.514;2023-09-19T04:26:07;5.53;;;2.30;;
7527;SDS011;3805;49.006;8.514;2023-09-19T04:28:55;4.50;;;2.13;;
7527;SDS011;3805;49.006;8.514;2023-09-19T04:31:44;6.40;;;2.33;;
7527;SDS011;3805;49.006;8.514;2023-09-19T04:34:33;2.70;;;2.13;;
7527;SDS011;3805;49.006;8.514;2023-09-19T04:37:23;4.33;;;2.27;;
7527;SDS011;3805;49.006;8.514;2023-09-19T04:40:12;4.47;;;2.63;;
7527;SDS011;3805;49.006;8.514;2023-09-19T04:43:04;2.73;;;2.23;;
7527;SDS011;3805;49.006;8.514;2023-09-19T04:45:54;4.20;;;2.37;;
7527;SDS011;3805;49.006;8.514;2023-09-19T04:48:43;3.57;;;2.40;;
7527;SDS011;3805;49.006;8.514;2023-09-19T04:51:32;3.63;;;2.23;;
7527;SDS011;3805;49.006;8.514;2023-09-19T04:54:24;3.43;;;2.47;;
7527;SDS011;3805;49.006;8.514;2023-09-19T04:57:14;6.40;;;2.50;;
7527;SDS011;3805;49.006;8.514;2023-09-19T05:00:03;7.20;;;2.80;;
7527;SDS011;3805;49.006;8.514;2023-09-19T05:02:59;2.37;;;2.17;;
7527;SDS011;3805;49.006;8.514;2023-09-19T05:05:48;2.87;;;2.50;;
7527;SDS011;3805;49.006;8.514;2023-09-19T05:08:37;2.60;;;2.40;;
7527;SDS011;3805;49.006;8.514;2023-09-19T05:11:27;2.37;;;2.17;;
7527;SDS011;3805;49.006;8.514;2023-09-19T05:14:17;4.70;;;2.37;;
7527;SDS011;3805;49.006;8.514;2023-09-19T05:17:07;4.80;;;2.60;;
7527;SDS011;3805;49.006;8.514;2023-09-19T05:19:55;3.60;;;2.40;;
7527;SDS011;3805;49.006;8.514;2023-09-19T05:22:45;2.67;;;2.27;;
7527;SDS011;3805;49.006;8.514;2023-09-19T05:25:34;7.70;;;3.27;;
7527;SDS011;3805;49.006;8.514;2023-09-19T05:28:26;7.33;;;2.17;;
7527;SDS011;3805;49.006;8.514;2023-09-19T05:31:15;3.57;;;2.57;;
7527;SDS011;3805;49.006;8.514;2023-09-19T05:34:04;4.00;;;2.47;;
7527;SDS011;3805;49.006;8.514;2023-09-19T05:36:53;3.03;;;2.80;;
7527;SDS011;3805;49.006;8.514;2023-09-19T05:39:42;5.27;;;2.60;;
7527;SDS011;3805;49.006;8.514;2023-09-19T05:42:30;5.40;;;2.70;;
7527;SDS011;3805;49.006;8.514;2023-09-19T05:45:20;2.60;;;2.40;;
7527;SDS011;3805;49.006;8.514;2023-09-19T05:48:11;2.70;;;2.20;;
7527;SDS011;3805;49.006;8.514;2023-09-19T05:51:03;8.70;;;2.40;;
7527;SDS011;3805;49.006;8.514;2023-09-19T05:53:52;2.73;;;2.53;;
7527;SDS011;3805;49.006;8.514;2023-09-19T05:56:41;7.63;;;2.43;;
7527;SDS011;3805;49.006;8.514;2023-09-19T05:59:30;3.63;;;2.47;;
7527;SDS011;3805;49.006;8.514;2023-09-19T06:02:21;3.63;;;2.83;;
7527;SDS011;3805;49.006;8.514;2023-09-19T06:05:10;2.50;;;2.30;;
7527;SDS011;3805;49.006;8.514;2023-09-19T06:07:59;2.47;;;1.90;;
7527;SDS011;3805;49.006;8.514;2023-09-19T06:10:48;4.50;;;2.67;;
7527;SDS011;3805;49.006;8.514;2023-09-19T06:13:39;3.37;;;2.30;;
7527;SDS011;3805;49.006;8.514;2023-09-19T06:16:28;6.27;;;2.63;;
7527;SDS011;3805;49.006;8.514;2023-09-19T06:19:18;2.80;;;2.37;;
7527;SDS011;3805;49.006;8.514;2023-09-19T06:22:10;6.40;;;3.20;;
7527;SDS011;3805;49.006;8.514;2023-09-19T06:24:59;5.57;;;2.80;;
7527;SDS011;3805;49.006;8.514;2023-09-19T06:27:49;4.23;;;2.30;;
7527;SDS011;3805;49.006;8.514;2023-09-19T06:30:39;3.23;;;2.50;;
7527;SDS011;3805;49.006;8.514;2023-09-19T06:33:28;4.07;;;2.50;;
7527;SDS011;3805;49.006;8.514;2023-09-19T06:36:20;4.33;;;2.23;;
7527;SDS011;3805;49.006;8.514;2023-09-19T06:39:09;2.80;;;2.60;;
7527;SDS011;3805;49.006;8.514;2023-09-19T06:41:58;2.60;;;2.40;;
7527;SDS011;3805;49.006;8.514;2023-09-19T06:44:48;3.87;;;2.70;;
7527;SDS011;3805;49.006;8.514;2023-09-19T06:47:37;3.77;;;2.50;;
7527;SDS011;3805;49.006;8.514;2023-09-19T06:50:26;4.07;;;2.87;;
7527;SDS011;3805;49.006;8.514;2023-09-19T06:53:16;4.33;;;2.30;;
7527;SDS011;3805;49.006;8.514;2023-09-19T06:56:05;7.30;;;2.70;;
7527;SDS011;3805;49.006;8.514;2023-09-19T06:58:54;2.77;;;2.10;;
7527;SDS011;3805;49.006;8.514;2023-09-19T07:01:42;5.97;;;2.60;;
7527;SDS011;3805;49.006;8.514;2023-09-19T07:04:32;3.80;;;2.50;;
7527;SDS011;3805;49.006;8.514;2023-09-19T07:07:20;4.33;;;3.10;;
7527;SDS011;3805;49.006;8.514;2023-09-19T07:10:11;7.43;;;2.43;;
7527;SDS011;3805;49.006;8.514;2023-09-19T07:13:00;5.03;;;2.60;;
7527;SDS011;3805;49.006;8.514;2023-09-19T07:15:50;5.00;;;2.60;;
7527;SDS011;3805;49.006;8.514;2023-09-19T07:18:38;3.10;;;2.50;;
7527;SDS011;3805;49.006;8.514;2023-09-19T07:21:27;2.63;;;2.43;;
7527;SDS011;3805;49.006;8.514;2023-09-19T07:24:16;2.80;;;2.30;;
7527;SDS011;3805;49.006;8.514;2023-09-19T07:27:06;3.13;;;2.83;;
7527;SDS011;3805;49.006;8.514;2023-09-19T07:29:55;5.80;;;2.63;;
7527;SDS011;3805;49.006;8.514;2023-09-19T07:32:44;4.53;;;3.00;;
7527;SDS011;3805;49.006;8.514;2023-09-19T07:35:32;4.93;;;2.50;;
7527;SDS011;3805;49.006;8.514;2023-09-19T07:38:21;6.93;;;2.90;;
7527;SDS011;3805;49.006;8.514;2023-09-19T07:41:09;2.87;;;2.57;;
7527;SDS011;3805;49.006;8.514;2023-09-19T07:43:59;2.97;;;2.47;;
7527;SDS011;3805;49.006;8.514;2023-09-19T07:46:48;2.73;;;2.53;;
7527;SDS011;3805;49.006;8.514;2023-09-19T07:49:38;4.50;;;2.50;;
7527;SDS011;3805;49.006;8.514;2023-09-19T07:52:26;6.13;;;2.30;;
7527;SDS011;3805;49.006;8.514;2023-09-19T07:55:16;3.50;;;2.83;;
7527;SDS011;3805;49.006;8.514;2023-09-19T07:58:07;2.93;;;2.30;;
7527;SDS011;3805;49.006;8.514;2023-09-19T08:00:57;3.80;;;2.37;;
7527;SDS011;3805;49.006;8.514;2023-09-19T08:03:50;5.73;;;2.50;;
7527;SDS011;3805;49.006;8.514;2023-09-19T08:06:39;4.93;;;2.17;;
7527;SDS011;3805;49.006;8.514;2023-09-19T08:09:28;4.50;;;2.40;;
7527;SDS011;3805;49.006;8.514;2023-09-19T08:12:20;2.63;;;2.40;;
7527;SDS011;3805;49.006;8.514;2023-09-19T08:15:11;2.60;;;2.00;;
7527;SDS011;3805;49.006;8.514;2023-09-19T08:18:01;2.13;;;1.80;;
7527;SDS011;3805;49.006;8.514;2023-09-19T08:20:51;4.30;;;2.33;;
7527;SDS011;3805;49.006;8.514;2023-09-19T08:23:40;5.20;;;2.20;;
7527;SDS011;3805;49.006;8.514;2023-09-19T08:26:30;2.60;;;1.93;;
7527;SDS011;3805;49.006;8.514;2023-09-19T08:29:20;2.20;;;2.00;;
7527;SDS011;3805;49.006;8.514;2023-09-19T08:32:09;4.80;;;2.37;;
7527;SDS011;3805;49.006;8.514;2023-09-19T08:34:59;3.40;;;1.70;;
7527;SDS011;3805;49.006;8.514;2023-09-19T08:37:48;5.03;;;2.33;;
7527;SDS011;3805;49.006;8.514;2023-09-19T08:40:36;1.90;;;1.73;;
7527;SDS011;3805;49.006;8.514;2023-09-19T08:43:27;2.57;;;1.60;;
7527;SDS011;3805;49.006;8.514;2023-09-19T08:46:16;1.90;;;1.80;;
7527;SDS011;3805;49.006;8.514;2023-09-19T08:49:08;3.10;;;2.07;;
7527;SDS011;3805;49.006;8.514;2023-09-19T08:52:01;5.07;;;1.80;;
7527;SDS011;3805;49.006;8.514;2023-09-19T08:54:55;4.40;;;1.60;;
7527;SDS011;3805;49.006;8.514;2023-09-19T08:57:49;2.40;;;1.80;;
7527;SDS011;3805;49.006;8.514;2023-09-19T09:00:38;6.07;;;1.67;;
7527;SDS011;3805;49.006;8.514;2023-09-19T09:03:31;2.77;;;1.90;;
7527;SDS011;3805;49.006;8.514;2023-09-19T09:06:21;1.70;;;1.60;;
7527;SDS011;3805;49.006;8.514;2023-09-19T09:09:11;2.80;;;1.73;;
7527;SDS011;3805;49.006;8.514;2023-09-19T09:12:00;4.23;;;1.80;;
7527;SDS011;3805;49.006;8.514;2023-09-19T09:14:49;3.70;;;1.80;;
7527;SDS011;3805;49.006;8.514;2023-09-19T09:17:39;3.50;;;1.73;;
7527;SDS011;3805;49.006;8.514;2023-09-19T09:20:29;1.90;;;1.60;;
7527;SDS011;3805;49.006;8.514;2023-09-19T09:23:17;2.37;;;1.67;;
7527;SDS011;3805;49.006;8.514;2023-09-19T09:26:14;3.67;;;2.00;;
7527;SDS011;3805;49.006;8.514;2023-09-19T09:29:03;1.50;;;1.40;;
7527;SDS011;3805;49.006;8.514;2023-09-19T09:31:52;4.27;;;1.80;;
7527;SDS011;3805;49.006;8.514;2023-09-19T09:34:40;3.57;;;1.77;;
7527;SDS011;3805;49.006;8.514;2023-09-19T09:37:29;2.40;;;1.70;;
7527;SDS011;3805;49.006;8.514;2023-09-19T09:40:18;1.83;;;1.70;;
7527;SDS011;3805;49.006;8.514;2023-09-19T09:43:28;2.60;;;1.43;;
7527;SDS011;3805;49.006;8.514;2023-09-19T09:46:18;6.27;;;1.63;;
7527;SDS011;3805;49.006;8.514;2023-09-19T09:49:37;2.20;;;1.73;;
7527;SDS011;3805;49.006;8.514;2023-09-19T09:52:26;4.93;;;1.93;;
7527;SDS011;3805;49.006;8.514;2023-09-19T09:55:15;6.10;;;1.80;;
7527;SDS011;3805;49.006;8.514;2023-09-19T09:58:18;1.83;;;1.30;;
7527;SDS011;3805;49.006;8.514;2023-09-19T10:01:12;2.80;;;1.60;;
7527;SDS011;3805;49.006;8.514;2023-09-19T10:04:02;2.97;;;1.63;;
7527;SDS011;3805;49.006;8.514;2023-09-19T10:06:51;2.10;;;1.87;;
7527;SDS011;3805;49.006;8.514;2023-09-19T10:09:44;3.83;;;1.57;;
7527;SDS011;3805;49.006;8.514;2023-09-19T10:12:34;2.23;;;1.80;;
7527;SDS011;3805;49.006;8.514;2023-09-19T10:15:25;2.90;;;1.43;;
7527;SDS011;3805;49.006;8.514;2023-09-19T10:18:19;4.27;;;1.60;;
7527;SDS011;3805;49.006;8.514;2023-09-19T10:21:09;3.50;;;2.03;;
7527;SDS011;3805;49.006;8.514;2023-09-19T10:23:58;4.83;;;1.50;;
7527;SDS011;3805;49.006;8.514;2023-09-19T10:26:47;1.93;;;1.37;;
7527;SDS011;3805;49.006;8.514;2023-09-19T10:29:38;1.77;;;1.43;;
7527;SDS011;3805;49.006;8.514;2023-09-19T10:32:27;5.37;;;1.90;;
7527;SDS011;3805;49.006;8.514;2023-09-19T10:35:22;2.37;;;1.57;;
7527;SDS011;3805;49.006;8.514;2023-09-19T10:38:11;2.63;;;1.70;;
7527;SDS011;3805;49.006;8.514;2023-09-19T10:41:05;3.60;;;1.70;;
7527;SDS011;3805;49.006;8.514;2023-09-19T10:43:54;3.23;;;1.60;;
7527;SDS011;3805;49.006;8.514;2023-09-19T10:46:42;2.10;;;1.47;;
7527;SDS011;3805;49.006;8.514;2023-09-19T10:49:32;4.03;;;1.90;;
7527;SDS011;3805;49.006;8.514;2023-09-19T10:52:24;1.67;;;1.53;;
7527;SDS011;3805;49.006;8.514;2023-09-19T10:55:15;3.33;;;1.57;;
7527;SDS011;3805;49.006;8.514;2023-09-19T10:58:05;2.10;;;1.90;;
7527;SDS011;3805;49.006;8.514;2023-09-19T11:01:01;3.60;;;1.90;;
7527;SDS011;3805;49.006;8.514;2023-09-19T11:07:12;3.93;;;1.83;;
7527;SDS011;3805;49.006;8.514;2023-09-19T11:10:03;2.80;;;1.60;;
7527;SDS011;3805;49.006;8.514;2023-09-19T11:12:57;3.43;;;1.87;;
7527;SDS011;3805;49.006;8.514;2023-09-19T11:19:07;3.67;;;2.07;;
7527;SDS011;3805;49.006;8.514;2023-09-19T11:21:58;3.80;;;1.90;;
7527;SDS011;3805;49.006;8.514;2023-09-19T11:24:46;3.53;;;1.87;;
7527;SDS011;3805;49.006;8.514;2023-09-19T11:27:36;3.77;;;1.60;;
7527;SDS011;3805;49.006;8.514;2023-09-19T11:34:47;3.70;;;1.53;;
7527;SDS011;3805;49.006;8.514;2023-09-19T11:44:33;2.57;;;2.30;;
7527;SDS011;3805;49.006;8.514;2023-09-19T11:47:23;1.93;;;1.63;;
7527;SDS011;3805;49.006;8.514;2023-09-19T11:50:17;1.83;;;1.67;;
7527;SDS011;3805;49.006;8.514;2023-09-19T11:53:07;1.90;;;1.70;;
7527;SDS011;3805;49.006;8.514;2023-09-19T11:55:57;2.80;;;1.77;;
7527;SDS011;3805;49.006;8.514;2023-09-19T11:58:48;6.10;;;1.90;;
7527;SDS011;3805;49.006;8.514;2023-09-19T12:01:42;2.90;;;1.90;;
7527;SDS011;3805;49.006;8.514;2023-09-19T12:04:43;4.57;;;2.00;;
7527;SDS011;3805;49.006;8.514;2023-09-19T12:07:43;2.47;;;1.70;;
7527;SDS011;3805;49.006;8.514;2023-09-19T12:10:43;3.10;;;2.07;;
7527;SDS011;3805;49.006;8.514;2023-09-19T12:13:33;3.23;;;1.60;;
7527;SDS011;3805;49.006;8.514;2023-09-19T12:16:22;2.10;;;1.90;;
7527;SDS011;3805;49.006;8.514;2023-09-19T12:19:17;2.67;;;1.50;;
7527;SDS011;3805;49.006;8.514;2023-09-19T12:22:09;3.57;;;1.57;;
7527;SDS011;3805;49.006;8.514;2023-09-19T12:25:06;4.87;;;1.63;;
7527;SDS011;3805;49.006;8.514;2023-09-19T12:27:58;3.00;;;1.90;;
7527;SDS011;3805;49.006;8.514;2023-09-19T12:30:50;2.10;;;1.40;;
7527;SDS011;3805;49.006;8.514;2023-09-19T12:33:42;4.63;;;1.97;;
7527;SDS011;3805;49.006;8.514;2023-09-19T12:36:31;1.63;;;1.30;;
7527;SDS011;3805;49.006;8.514;2023-09-19T12:39:24;2.53;;;2.33;;
7527;SDS011;3805;49.006;8.514;2023-09-19T12:42:15;2.00;;;1.70;;
7527;SDS011;3805;49.006;8.514;2023-09-19T12:45:05;2.10;;;1.70;;
7527;SDS011;3805;49.006;8.514;2023-09-19T12:51:09;2.00;;;1.80;;
7527;SDS011;3805;49.006;8.514;2023-09-19T12:54:00;2.13;;;1.93;;
7527;SDS011;3805;49.006;8.514;2023-09-19T12:56:49;2.77;;;1.60;;
7527;SDS011;3805;49.006;8.514;2023-09-19T12:59:39;2.30;;;2.10;;
7527;SDS011;3805;49.006;8.514;2023-09-19T13:02:29;3.10;;;1.40;;
7527;SDS011;3805;49.006;8.514;2023-09-19T13:05:18;2.27;;;1.73;;
7527;SDS011;3805;49.006;8.514;2023-09-19T13:08:17;2.30;;;1.80;;
7527;SDS011;3805;49.006;8.514;2023-09-19T13:11:10;2.23;;;1.70;;
7527;SDS011;3805;49.006;8.514;2023-09-19T13:14:13;2.87;;;1.80;;
7527;SDS011;3805;49.006;8.514;2023-09-19T13:17:06;4.60;;;2.27;;
7527;SDS011;3805;49.006;8.514;2023-09-19T13:20:04;3.20;;;1.70;;
7527;SDS011;3805;49.006;8.514;2023-09-19T13:22:54;2.33;;;1.40;;
7527;SDS011;3805;49.006;8.514;2023-09-19T13:25:46;4.23;;;1.77;;
7527;SDS011;3805;49.006;8.514;2023-09-19T13:28:35;2.47;;;1.50;;
7527;SDS011;3805;49.006;8.514;2023-09-19T13:31:26;2.70;;;1.70;;
7527;SDS011;3805;49.006;8.514;2023-09-19T13:34:16;2.07;;;1.50;;
7527;SDS011;3805;49.006;8.514;2023-09-19T13:37:05;1.50;;;1.40;;
7527;SDS011;3805;49.006;8.514;2023-09-19T13:39:53;2.23;;;1.53;;
7527;SDS011;3805;49.006;8.514;2023-09-19T13:42:42;1.70;;;1.60;;
7527;SDS011;3805;49.006;8.514;2023-09-19T13:45:30;2.40;;;1.83;;
7527;SDS011;3805;49.006;8.514;2023-09-19T13:48:19;2.63;;;1.80;;
7527;SDS011;3805;49.006;8.514;2023-09-19T13:51:10;2.00;;;1.50;;
7527;SDS011;3805;49.006;8.514;2023-09-19T13:53:59;4.30;;;1.63;;
7527;SDS011;3805;49.006;8.514;2023-09-19T13:56:47;1.43;;;1.33;;
7527;SDS011;3805;49.006;8.514;2023-09-19T13:59:51;1.73;;;1.63;;
7527;SDS011;3805;49.006;8.514;2023-09-19T14:03:02;2.70;;;1.40;;
7527;SDS011;3805;49.006;8.514;2023-09-19T14:05:52;2.10;;;1.40;;
7527;SDS011;3805;49.006;8.514;2023-09-19T14:08:41;2.07;;;1.80;;
7527;SDS011;3805;49.006;8.514;2023-09-19T14:11:31;3.43;;;1.27;;
7527;SDS011;3805;49.006;8.514;2023-09-19T14:14:20;7.03;;;1.57;;
7527;SDS011;3805;49.006;8.514;2023-09-19T14:17:08;1.97;;;1.80;;
7527;SDS011;3805;49.006;8.514;2023-09-19T14:19:57;1.33;;;1.20;;
7527;SDS011;3805;49.006;8.514;2023-09-19T14:22:46;2.10;;;1.80;;
7527;SDS011;3805;49.006;8.514;2023-09-19T14:25:36;1.93;;;1.77;;
7527;SDS011;3805;49.006;8.514;2023-09-19T14:28:25;3.70;;;1.67;;
7527;SDS011;3805;49.006;8.514;2023-09-19T14:31:14;1.60;;;1.30;;
7527;SDS011;3805;49.006;8.514;2023-09-19T14:34:03;1.90;;;1.40;;
7527;SDS011;3805;49.006;8.514;2023-09-19T14:36:52;1.50;;;1.40;;
7527;SDS011;3805;49.006;8.514;2023-09-19T14:39:41;2.40;;;1.50;;
7527;SDS011;3805;49.006;8.514;2023-09-19T14:42:33;2.27;;;1.47;;
7527;SDS011;3805;49.006;8.514;2023-09-19T14:45:23;1.70;;;1.30;;
7527;SDS011;3805;49.006;8.514;2023-09-19T14:48:12;2.27;;;1.30;;
7527;SDS011;3805;49.006;8.514;2023-09-19T14:51:01;1.50;;;1.40;;
7527;SDS011;3805;49.006;8.514;2023-09-19T14:53:50;1.67;;;1.40;;
7527;SDS011;3805;49.006;8.514;2023-09-19T14:56:39;2.60;;;1.10;;
7527;SDS011;3805;49.006;8.514;2023-09-19T14:59:32;1.60;;;1.50;;
7527;SDS011;3805;49.006;8.514;2023-09-19T15:02:21;2.70;;;1.43;;
7527;SDS011;3805;49.006;8.514;2023-09-19T15:05:10;1.73;;;1.50;;
7527;SDS011;3805;49.006;8.514;2023-09-19T15:07:59;2.50;;;1.83;;
7527;SDS011;3805;49.006;8.514;2023-09-19T15:10:50;1.73;;;1.30;;
7527;SDS011;3805;49.006;8.514;2023-09-19T15:13:40;1.40;;;1.30;;
7527;SDS011;3805;49.006;8.514;2023-09-19T15:16:31;1.70;;;1.60;;
7527;SDS011;3805;49.006;8.514;2023-09-19T15:19:20;2.23;;;1.40;;
7527;SDS011;3805;49.006;8.514;2023-09-19T15:22:09;1.50;;;1.40;;
7527;SDS011;3805;49.006;8.514;2023-09-19T15:24:59;2.07;;;1.20;;
7527;SDS011;3805;49.006;8.514;2023-09-19T15:27:48;1.30;;;1.20;;
7527;SDS011;3805;49.006;8.514;2023-09-19T15:30:38;2.93;;;1.47;;
7527;SDS011;3805;49.006;8.514;2023-09-19T15:33:28;3.90;;;1.27;;
7527;SDS011;3805;49.006;8.514;2023-09-19T15:36:17;1.33;;;1.23;;
7527;SDS011;3805;49.006;8.514;2023-09-19T15:39:06;1.93;;;1.43;;
7527;SDS011;3805;49.006;8.514;2023-09-19T15:41:58;1.30;;;1.20;;
7527;SDS011;3805;49.006;8.514;2023-09-19T15:44:46;1.50;;;1.30;;
7527;SDS011;3805;49.006;8.514;2023-09-19T15:47:37;1.60;;;1.40;;
7527;SDS011;3805;49.006;8.514;2023-09-19T15:50:27;1.63;;;1.30;;
7527;SDS011;3805;49.006;8.514;2023-09-19T15:53:16;1.60;;;1.50;;
7527;SDS011;3805;49.006;8.514;2023-09-19T15:56:05;2.07;;;1.23;;
7527;SDS011;3805;49.006;8.514;2023-09-19T15:58:54;1.53;;;1.43;;
7527;SDS011;3805;49.006;8.514;2023-09-19T16:01:44;4.50;;;1.50;;
7527;SDS011;3805;49.006;8.514;2023-09-19T16:04:33;1.33;;;1.23;;
7527;SDS011;3805;49.006;8.514;2023-09-19T16:07:23;3.33;;;1.80;;
7527;SDS011;3805;49.006;8.514;2023-09-19T16:10:12;2.63;;;1.50;;
7527;SDS011;3805;49.006;8.514;2023-09-19T16:13:02;2.57;;;1.70;;
7527;SDS011;3805;49.006;8.514;2023-09-19T16:15:51;2.90;;;1.80;;
7527;SDS011;3805;49.006;8.514;2023-09-19T16:18:40;2.07;;;1.77;;
7527;SDS011;3805;49.006;8.514;2023-09-19T16:21:29;3.00;;;1.50;;
7527;SDS011;3805;49.006;8.514;2023-09-19T16:24:19;2.40;;;2.00;;
7527;SDS011;3805;49.006;8.514;2023-09-19T16:27:08;1.50;;;1.40;;
7527;SDS011;3805;49.006;8.514;2023-09-19T16:29:56;1.67;;;1.40;;
7527;SDS011;3805;49.006;8.514;2023-09-19T16:32:45;2.20;;;1.60;;
7527;SDS011;3805;49.006;8.514;2023-09-19T16:35:36;1.50;;;1.40;;
7527;SDS011;3805;49.006;8.514;2023-09-19T16:38:26;2.13;;;1.40;;
7527;SDS011;3805;49.006;8.514;2023-09-19T16:41:16;2.10;;;1.50;;
7527;SDS011;3805;49.006;8.514;2023-09-19T16:44:06;1.70;;;1.47;;
7527;SDS011;3805;49.006;8.514;2023-09-19T16:46:57;3.27;;;1.50;;
7527;SDS011;3805;49.006;8.514;2023-09-19T16:49:45;1.93;;;1.30;;
7527;SDS011;3805;49.006;8.514;2023-09-19T16:52:34;3.17;;;2.03;;
7527;SDS011;3805;49.006;8.514;2023-09-19T16:55:22;1.73;;;1.57;;
7527;SDS011;3805;49.006;8.514;2023-09-19T16:58:12;2.57;;;1.50;;
7527;SDS011;3805;49.006;8.514;2023-09-19T17:01:01;3.23;;;1.80;;
7527;SDS011;3805;49.006;8.514;2023-09-19T17:03:50;2.03;;;1.70;;
7527;SDS011;3805;49.006;8.514;2023-09-19T17:06:39;1.90;;;1.47;;
7527;SDS011;3805;49.006;8.514;2023-09-19T17:09:33;2.33;;;1.43;;
7527;SDS011;3805;49.006;8.514;2023-09-19T17:12:21;3.67;;;1.60;;
7527;SDS011;3805;49.006;8.514;2023-09-19T17:15:11;3.00;;;1.60;;
7527;SDS011;3805;49.006;8.514;2023-09-19T17:18:00;2.53;;;1.60;;
7527;SDS011;3805;49.006;8.514;2023-09-19T17:20:48;1.77;;;1.67;;
7527;SDS011;3805;49.006;8.514;2023-09-19T17:23:37;2.03;;;1.70;;
7527;SDS011;3805;49.006;8.514;2023-09-19T17:26:26;1.67;;;1.57;;
7527;SDS011;3805;49.006;8.514;2023-09-19T17:29:15;1.67;;;1.50;;
7527;SDS011;3805;49.006;8.514;2023-09-19T17:32:07;2.53;;;1.87;;
7527;SDS011;3805;49.006;8.514;2023-09-19T17:34:55;5.13;;;1.90;;
7527;SDS011;3805;49.006;8.514;2023-09-19T17:37:44;1.57;;;1.33;;
7527;SDS011;3805;49.006;8.514;2023-09-19T17:40:38;4.80;;;2.57;;
7527;SDS011;3805;49.006;8.514;2023-09-19T17:43:27;2.10;;;1.80;;
7527;SDS011;3805;49.006;8.514;2023-09-19T17:46:16;4.40;;;1.93;;
7527;SDS011;3805;49.006;8.514;2023-09-19T17:49:07;1.93;;;1.77;;
7527;SDS011;3805;49.006;8.514;2023-09-19T17:51:55;2.33;;;1.57;;
7527;SDS011;3805;49.006;8.514;2023-09-19T17:54:44;2.50;;;1.80;;
7527;SDS011;3805;49.006;8.514;2023-09-19T17:57:33;2.70;;;1.83;;
7527;SDS011;3805;49.006;8.514;2023-09-19T18:00:21;5.53;;;2.00;;